Latest Weather Observations for Cape Borda

IDS60801

Issued at 9:31 am CST Tuesday 16 August 2022 (issued every 10 minutes, with the page automatically refreshed every 10 minutes)

About weather observations | Map of weather stations | Latest weather observations for SA | Other Formats
Station Details ID: 022823 Name: CAPE BORDA Lat: -35.75 Lon: 136.60 Height: 158.0 m
Data from the previous 72 hours. | See also: Recent months at Cape Borda
Date/Time
CST
Temp
°C
App
Temp
°C
Dew
Point
°C
Rel
Hum
%
Delta-T
°C
Wind Press
QNH
hPa
Press
MSL
hPa
Rain since
9am
mm
Dir  Spd
km/h
Gust
km/h
Spd
kts
Gust
kts
16/09:30am 12.4 9.7 7.3 71 2.5 S 11 19 6 10 1020.2 1020.3 0.0
16/09:00am 11.6 8.6 7.5 76 2.0 SSE 13 15 7 8 1020.2 1020.3 2.4
16/08:30am 10.6 7.6 7.5 81 1.5 SSE 13 17 7 9 1019.9 1019.9 2.4
16/08:00am 9.2 6.0 6.8 85 1.1 SSE 13 15 7 8 1019.9 1019.9 2.4
16/07:30am 8.1 4.0 6.2 88 0.9 SSE 17 19 9 10 1019.4 1019.4 2.4
16/07:00am 7.8 3.7 6.1 89 0.8 SSE 17 19 9 10 1019.3 1019.3 2.4
16/06:30am 7.8 3.7 6.3 90 0.7 SSE 17 17 9 9 1019.1 1019.1 2.4
16/06:00am 8.1 4.0 6.2 88 0.9 S 17 19 9 10 1018.7 1018.7 2.4
16/05:30am 8.4 4.7 6.4 87 0.9 S 15 19 8 10 1018.5 1018.5 2.4
16/05:00am 9.2 5.2 6.6 84 1.2 S 17 20 9 11 1018.3 1018.3 2.4
16/04:30am 9.1 5.4 6.4 83 1.3 S 15 19 8 10 1017.9 1018.0 2.2
16/04:00am 9.0 5.3 6.4 84 1.2 SSW 15 19 8 10 1017.6 1017.7 2.2
16/03:30am 9.0 5.5 7.1 88 0.9 SSW 15 17 8 9 1017.3 1017.4 2.2
16/03:00am 8.3 4.3 6.6 89 0.8 S 17 19 9 10 1016.7 1016.8 2.2
16/02:30am 8.2 4.5 6.5 89 0.8 SSE 15 17 8 9 1016.4 1016.5 2.2
16/02:00am 8.7 4.7 6.8 88 0.9 S 17 20 9 11 1016.7 1016.8 2.2
16/01:30am 8.8 4.5 7.1 89 0.8 S 19 20 10 11 1016.6 1016.7 2.2
16/01:00am 8.7 5.2 7.2 90 0.7 SSE 15 20 8 11 1016.3 1016.4 2.2
16/12:30am 9.2 5.4 7.6 90 0.8 SSE 17 20 9 11 1016.3 1016.4 2.2
16/12:00am 10.0 6.0 8.3 89 0.8 S 19 24 10 13 1016.4 1016.5 2.2
 
Date/Time
CST
Temp
°C
App
Temp
°C
Dew
Point
°C
Rel
Hum
%
Delta-T
°C
Wind Press
QNH
hPa
Press
MSL
hPa
Rain since
9am
mm
Dir  Spd
km/h
Gust
km/h
Spd
kts
Gust
kts
15/11:30pm 10.3 6.3 8.2 87 1.0 SSW 19 24 10 13 1016.2 1016.3 2.2
15/11:00pm 10.1 5.8 8.0 87 1.0 SSW 20 26 11 14 1016.1 1016.2 2.2
15/10:30pm 10.4 6.3 8.7 89 0.8 SSW 20 26 11 14 1015.9 1016.0 2.2
15/10:00pm 11.2 6.8 9.1 87 1.1 SSW 22 28 12 15 1015.7 1015.8 2.2
15/09:30pm 10.7 7.3 9.0 89 0.8 SSW 17 24 9 13 1015.6 1015.7 2.2
15/09:00pm 11.3 7.3 8.2 81 1.5 S 19 26 10 14 1015.1 1015.2 1.8
15/08:30pm 11.3 7.1 8.2 81 1.5 S 20 26 11 14 1014.7 1014.8 1.8
15/08:00pm 10.7 6.6 7.8 82 1.4 S 19 26 10 14 1014.2 1014.2 1.8
15/07:30pm 10.9 6.2 7.8 81 1.5 S 22 30 12 16 1014.1 1014.1 1.8
15/07:00pm 10.8 6.2 8.0 83 1.4 S 22 32 12 17 1013.7 1013.7 1.8
15/06:30pm 10.9 6.3 8.0 82 1.4 S 22 32 12 17 1013.4 1013.4 1.8
15/06:00pm 11.6 6.7 8.5 81 1.5 SSW 24 39 13 21 1013.0 1013.0 1.8
15/05:30pm 11.8 5.7 8.3 79 1.7 SSW 30 37 16 20 1012.4 1012.4 1.8
15/05:00pm 12.4 7.7 9.2 81 1.6 SSW 24 33 13 18 1011.7 1011.7 1.8
15/04:30pm 12.1 7.0 9.1 82 1.5 SSW 26 32 14 17 1011.3 1011.4 1.8
15/04:00pm 12.4 7.7 9.1 80 1.7 SSW 24 32 13 17 1011.1 1011.2 1.8
15/03:30pm 12.9 8.7 9.7 81 1.6 SW 22 30 12 16 1010.9 1011.0 1.8
15/03:00pm 13.0 7.8 8.7 75 2.2 SW 26 33 14 18 1010.7 1010.8 1.8
15/02:30pm 13.1 8.3 8.8 75 2.2 SW 24 35 13 19 1010.5 1010.6 1.8
15/02:00pm 13.0 8.2 8.9 76 2.1 SSW 24 32 13 17 1010.4 1010.5 1.8
15/01:30pm 12.3 8.3 10.4 88 1.0 SSW 22 30 12 16 1010.4 1010.5 1.8
15/01:00pm 12.1 7.6 10.0 87 1.1 SSW 24 33 13 18 1010.7 1010.8 1.4
15/12:30pm 13.8 9.6 8.4 70 2.7 SSW 20 30 11 16 1010.6 1010.7 1.4
15/12:00pm 14.1 10.4 9.3 73 2.5 SSW 19 28 10 15 1010.7 1010.8 1.4
15/11:30am 14.2 10.6 10.0 76 2.2 SSW 19 26 10 14 1010.8 1010.9 1.4
15/11:00am 13.4 10.0 9.1 75 2.2 SW 17 22 9 12 1010.7 1010.8 1.4
15/10:30am 12.6 10.3 10.5 87 1.1 SSW 13 19 7 10 1010.8 1010.9 1.4
15/10:00am 11.3 8.9 10.0 92 0.7 SSW 13 19 7 10 1010.8 1010.9 1.4
15/09:30am 10.9 8.2 9.0 88 1.0 WSW 13 20 7 11 1010.9 1011.0 0.0
15/09:00am 11.4 10.1 10.0 91 0.7 SSE 7 9 4 5 1010.5 1010.6 2.4
15/08:30am 11.1 8.6 9.7 91 0.7 S 13 19 7 10 1010.2 1010.3 2.4
15/08:00am 11.1 8.9 9.4 89 0.9 SW 11 13 6 7 1010.2 1010.3 2.4
15/07:30am 10.0 7.2 8.6 91 0.7 SW 13 15 7 8 1010.1 1010.2 2.2
15/07:00am 10.1 7.3 8.5 90 0.8 SSW 13 15 7 8 1009.7 1009.8 2.2
15/06:30am 10.3 7.0 8.1 86 1.1 SW 15 20 8 11 1009.8 1009.9 2.2
15/06:00am 9.9 6.6 8.0 88 0.9 SW 15 22 8 12 1009.9 1010.0 2.2
15/05:30am 10.0 7.4 7.6 85 1.2 SW 11 15 6 8 1009.9 1010.0 1.8
15/05:00am 10.4 7.6 8.7 89 0.8 SW 13 19 7 10 1009.9 1010.0 1.4
15/04:30am 10.1 6.8 8.0 87 1.0 SW 15 20 8 11 1009.9 1010.0 1.4
15/04:00am 11.3 7.7 8.3 82 1.5 WSW 17 24 9 13 1010.0 1010.1 1.0
15/03:30am 11.6 8.3 8.1 79 1.7 WSW 15 28 8 15 1010.2 1010.3 1.0
15/03:00am 11.6 8.4 8.6 82 1.5 WSW 15 22 8 12 1010.4 1010.5 1.0
15/02:30am 11.7 8.9 8.6 81 1.5 WSW 13 19 7 10 1010.6 1010.7 1.0
15/02:00am 11.7 8.5 8.6 81 1.5 W 15 20 8 11 1011.0 1011.1 1.0
15/01:30am 11.6 8.4 8.5 81 1.5 W 15 22 8 12 1011.1 1011.2 1.0
15/01:00am 11.5 8.0 8.9 84 1.3 W 17 20 9 11 1011.3 1011.4 1.0
15/12:30am 11.5 7.7 9.1 85 1.2 W 19 24 10 13 1011.7 1011.7 1.0
15/12:00am 11.4 7.6 9.1 86 1.2 W 19 24 10 13 1011.8 1011.8 1.0
 
Date/Time
CST
Temp
°C
App
Temp
°C
Dew
Point
°C
Rel
Hum
%
Delta-T
°C
Wind Press
QNH
hPa
Press
MSL
hPa
Rain since
9am
mm
Dir  Spd
km/h
Gust
km/h
Spd
kts
Gust
kts
14/11:30pm 11.3 8.5 9.9 91 0.7 WNW 15 20 8 11 1011.8 1011.8 1.0
14/11:00pm 10.8 9.3 9.2 90 0.8 NW 7 11 4 6 1012.4 1012.4 1.0
14/10:30pm 10.7 9.2 9.3 91 0.7 NW 7 11 4 6 1012.9 1012.9 1.0
14/10:00pm 10.7 9.3 9.5 92 0.6 W 7 9 4 5 1013.1 1013.1 1.0
14/09:30pm 11.0 7.8 9.8 92 0.6 W 17 30 9 16 1013.2 1013.2 0.6
14/09:00pm 11.5 9.8 8.4 81 1.5 WSW 7 11 4 6 1013.1 1013.1 0.2
14/08:30pm 11.6 9.1 8.1 79 1.7 WSW 11 17 6 9 1013.2 1013.2 0.2
14/08:00pm 11.5 9.4 8.2 80 1.6 WSW 9 13 5 7 1013.3 1013.3 0.2
14/07:30pm 11.8 8.6 8.5 80 1.6 WSW 15 20 8 11 1013.5 1013.5 0.2
14/07:00pm 11.7 8.5 8.6 81 1.5 W 15 22 8 12 1013.4 1013.4 0.2
14/06:30pm 11.6 9.2 8.6 82 1.5 WSW 11 15 6 8 1013.2 1013.2 0.2
14/06:00pm 11.7 8.9 8.6 81 1.5 W 13 19 7 10 1013.2 1013.2 0.2
14/05:30pm 12.2 9.4 8.7 79 1.8 WSW 13 17 7 9 1013.1 1013.1 0.2
14/05:00pm 12.6 10.3 8.9 78 1.9 WSW 11 17 6 9 1013.1 1013.1 0.2
14/04:30pm 13.3 10.2 8.8 74 2.3 W 15 20 8 11 1013.4 1013.4 0.2
14/04:00pm 13.4 10.0 9.1 75 2.2 W 17 20 9 11 1013.2 1013.2 0.2
14/03:30pm 13.5 10.2 9.7 78 2.0 WSW 17 20 9 11 1013.4 1013.4 0.2
14/03:00pm 13.6 10.7 9.5 76 2.1 WSW 15 20 8 11 1013.5 1013.5 0.2
14/02:30pm 13.8 10.9 9.8 77 2.1 SW 15 22 8 12 1013.5 1013.5 0.2
14/02:00pm 13.8 10.0 9.0 73 2.5 WSW 19 20 10 11 1013.7 1013.7 0.2
14/01:30pm 14.0 10.8 10.0 77 2.1 W 17 20 9 11 1014.3 1014.3 0.2
14/01:00pm 14.3 11.2 10.3 77 2.1 WSW 17 24 9 13 1014.7 1014.8 0.0
14/12:30pm 14.1 11.3 10.1 77 2.1 W 15 19 8 10 1015.2 1015.3 0.0
14/12:00pm 13.6 10.5 8.7 72 2.5 WSW 15 20 8 11 1015.2 1015.3 0.0
14/11:30am 13.9 11.0 9.7 76 2.2 WSW 15 19 8 10 1015.7 1015.8 0.0
14/11:00am 13.5 10.5 9.4 76 2.1 SW 15 20 8 11 1015.7 1015.8 0.0
14/10:30am 13.5 11.0 9.6 77 2.0 WSW 13 20 7 11 1015.8 1015.9 0.0
14/10:00am 13.2 10.6 9.3 77 2.0 SSW 13 19 7 10 1015.7 1015.8 0.0
14/09:30am 12.8 10.1 9.1 78 1.9 SSW 13 17 7 9 1015.8 1015.9 0.0
14/09:00am 12.4 10.2 9.4 82 1.5 SW 11 17 6 9 1015.9 1016.0 2.2
14/08:30am 11.6 9.9 9.9 89 0.9 SSW 9 11 5 6 1015.8 1015.9 2.2
14/08:00am 10.2 7.5 8.8 91 0.7 S 13 13 7 7 1015.6 1015.7 2.2
14/07:30am 9.4 6.5 8.2 92 0.6 S 13 13 7 7 1015.5 1015.6 2.2
14/07:00am 9.1 6.6 8.2 94 0.4 S 11 13 6 7 1015.2 1015.3 2.2
14/06:30am 9.0 6.4 7.8 92 0.6 S 11 13 6 7 1015.1 1015.2 2.2
14/06:00am 9.2 6.7 8.0 92 0.6 SSW 11 13 6 7 1014.9 1015.0 2.2
14/05:30am 9.1 5.8 7.9 92 0.6 S 15 15 8 8 1014.5 1014.5 2.2
14/05:00am 9.2 5.9 8.0 92 0.6 S 15 17 8 9 1014.3 1014.3 2.2
14/04:30am 9.2 5.5 8.1 93 0.5 S 17 19 9 10 1014.3 1014.3 2.2
14/04:00am 9.0 5.7 7.9 93 0.5 S 15 17 8 9 1014.4 1014.4 2.2
14/03:30am 9.2 5.9 8.0 92 0.6 S 15 17 8 9 1014.4 1014.4 2.2
14/03:00am 9.3 6.0 8.1 92 0.6 S 15 17 8 9 1014.6 1014.6 2.2
14/02:30am 9.3 5.6 8.1 92 0.6 S 17 17 9 9 1014.8 1014.9 2.2
14/02:00am 9.0 5.7 7.9 93 0.5 S 15 17 8 9 1015.1 1015.2 2.2
14/01:30am 9.2 5.9 8.0 92 0.6 S 15 17 8 9 1015.2 1015.3 2.2
14/01:00am 9.2 5.9 8.1 93 0.5 S 15 17 8 9 1015.3 1015.4 2.2
14/12:30am 9.4 5.8 8.2 92 0.6 S 17 19 9 10 1015.5 1015.6 2.2
14/12:00am 9.3 6.0 8.2 93 0.5 S 15 17 8 9 1015.5 1015.6 2.2
 
Date/Time
CST
Temp
°C
App
Temp
°C
Dew
Point
°C
Rel
Hum
%
Delta-T
°C
Wind Press
QNH
hPa
Press
MSL
hPa
Rain since
9am
mm
Dir  Spd
km/h
Gust
km/h
Spd
kts
Gust
kts
13/11:30pm 9.4 6.1 8.2 92 0.6 S 15 17 8 9 1015.5 1015.6 2.2
13/11:00pm 9.6 6.4 8.4 92 0.6 SSE 15 20 8 11 1015.5 1015.6 2.0
13/10:30pm 9.8 6.2 8.2 90 0.8 S 17 20 9 11 1015.6 1015.7 2.0
13/10:00pm 10.0 6.4 8.4 90 0.8 S 17 20 9 11 1015.6 1015.7 2.0
13/09:30pm 10.3 6.8 8.6 89 0.8 SSW 17 22 9 12 1015.8 1015.9 2.0
13/09:00pm 10.0 6.8 8.3 89 0.8 S 15 19 8 10 1015.8 1015.9 2.0
13/08:30pm 10.4 6.9 8.7 89 0.8 S 17 20 9 11 1015.7 1015.8 2.0
13/08:00pm 10.0 6.4 8.3 89 0.8 S 17 20 9 11 1015.4 1015.5 2.0
13/07:30pm 10.4 6.8 8.3 87 1.0 S 17 20 9 11 1015.2 1015.3 2.0
13/07:00pm 10.3 6.8 8.6 89 0.8 S 17 20 9 11 1014.9 1015.0 2.0
13/06:30pm 10.4 6.9 8.7 89 0.8 S 17 20 9 11 1014.7 1014.8 2.0
13/06:00pm 10.6 7.1 8.7 88 0.9 S 17 20 9 11 1014.4 1014.4 2.0
13/05:30pm 11.4 7.5 9.3 87 1.1 S 20 26 11 14 1014.2 1014.2 2.0
13/05:00pm 11.8 7.7 8.8 82 1.5 S 20 28 11 15 1014.1 1014.1 2.0
13/04:30pm 12.0 8.2 9.0 82 1.5 SSW 19 26 10 14 1014.1 1014.1 2.0
13/04:00pm 13.2 8.9 9.3 77 2.0 SSW 22 30 12 16 1014.0 1014.0 2.0
13/03:30pm 14.0 9.1 10.0 77 2.1 SSW 26 35 14 19 1013.9 1013.9 2.0
13/03:00pm 13.6 8.6 9.5 76 2.1 S 26 32 14 17 1013.8 1013.8 2.0
13/02:30pm 13.4 9.6 9.8 79 1.9 SSW 20 28 11 15 1013.9 1013.9 2.0
13/02:00pm 13.2 7.9 10.0 81 1.7 SSW 28 37 15 20 1014.0 1014.0 2.0
13/01:30pm 13.6 10.1 10.8 83 1.5 SSW 20 30 11 16 1014.1 1014.1 2.0
13/01:00pm 13.5 8.5 9.4 76 2.1 SW 26 30 14 16 1014.2 1014.2 1.4
13/12:30pm 13.5 9.5 10.5 82 1.6 SSW 22 33 12 18 1014.5 1014.5 1.4
13/12:00pm 12.7 8.9 9.7 82 1.5 SSW 20 30 11 16 1014.8 1014.9 1.4
13/11:30am 12.6 8.7 10.7 88 1.0 S 22 28 12 15 1014.9 1015.0 1.4
13/11:00am 12.2 7.8 10.4 89 0.9 S 24 37 13 20 1014.9 1015.0 1.2
13/10:30am 10.9 5.6 9.8 93 0.6 SSW 28 41 15 22 1014.8 1014.9 1.2
13/10:07am 11.6 5.8 9.5 87 1.1 SSW 30 48 16 26 1014.7 1014.8 0.2
13/10:00am 11.7 5.4 9.1 84 1.3 SSW 32 41 17 22 1014.7 1014.8 0.2

Other formats

Comma delimited format used in spreadsheet applications
http://www.bom.gov.au/fwo/IDS60801/IDS60801.95805.axf

JavaScript Object Notation format (JSON) in row-major order
http://www.bom.gov.au/fwo/IDS60801/IDS60801.95805.json

Data quality

Most of these data are generated automatically and are frequently updated. Quality checks on data are not normally performed. It is possible for incorrect values to appear. Refer to information at About Latest Weather Observations and please check the disclaimer before using these data.